createdAt,value
2023-09-05T00:01:43.062Z,2.40
2023-09-05T00:04:09.938Z,2.40
2023-09-05T00:06:37.453Z,2.88
2023-09-05T00:09:04.220Z,2.90
2023-09-05T00:11:32.298Z,2.83
2023-09-05T00:14:02.407Z,2.67
2023-09-05T00:16:29.739Z,2.47
2023-09-05T00:18:57.058Z,2.60
2023-09-05T00:21:24.076Z,2.65
2023-09-05T00:23:50.885Z,2.65
2023-09-05T00:26:17.592Z,2.60
2023-09-05T00:28:45.336Z,2.55
2023-09-05T00:31:15.740Z,3.13
2023-09-05T00:33:42.550Z,2.65
2023-09-05T00:36:10.204Z,2.97
2023-09-05T00:38:38.142Z,2.70
2023-09-05T00:41:06.880Z,2.78
2023-09-05T00:43:33.617Z,2.92
2023-09-05T00:46:00.424Z,2.90
2023-09-05T00:48:30.035Z,2.88
2023-09-05T00:50:57.475Z,2.70
2023-09-05T00:53:27.819Z,2.33
2023-09-05T00:55:55.005Z,3.00
2023-09-05T00:58:22.110Z,3.23
2023-09-05T01:00:48.910Z,3.13
2023-09-05T01:03:15.806Z,2.90
2023-09-05T01:05:45.887Z,3.30
2023-09-05T01:08:27.770Z,3.37
2023-09-05T01:11:01.219Z,3.10
2023-09-05T01:13:28.714Z,3.30
2023-09-05T01:15:55.786Z,3.00
2023-09-05T01:18:22.855Z,3.20
2023-09-05T01:21:12.909Z,3.17
2023-09-05T01:23:46.262Z,2.80
2023-09-05T01:26:12.981Z,3.07
2023-09-05T01:28:45.429Z,3.00
2023-09-05T01:31:12.542Z,3.20
2023-09-05T01:33:42.277Z,3.43
2023-09-05T01:36:09.041Z,3.17
2023-09-05T01:38:35.922Z,3.33
2023-09-05T01:41:02.661Z,3.13
2023-09-05T01:43:29.404Z,3.00
2023-09-05T01:45:56.135Z,3.10
2023-09-05T01:48:22.954Z,3.00
2023-09-05T01:50:49.935Z,3.10
2023-09-05T01:53:16.627Z,3.37
2023-09-05T01:55:43.547Z,3.07
2023-09-05T01:58:10.256Z,3.40
2023-09-05T02:00:37.011Z,3.60
2023-09-05T02:03:03.987Z,3.30
2023-09-05T02:05:30.777Z,3.10
2023-09-05T02:07:57.731Z,3.10
2023-09-05T02:10:24.524Z,2.87
2023-09-05T02:12:51.504Z,5.23
2023-09-05T02:15:18.188Z,3.40
2023-09-05T02:17:44.999Z,3.00
2023-09-05T02:20:12.000Z,2.77
2023-09-05T02:22:38.776Z,2.70
2023-09-05T02:25:05.944Z,2.60
2023-09-05T02:27:32.703Z,2.57
2023-09-05T02:30:02.817Z,2.70
2023-09-05T02:32:30.941Z,2.47
2023-09-05T02:34:58.353Z,2.57
2023-09-05T02:37:25.235Z,2.90
2023-09-05T02:39:51.956Z,2.70
2023-09-05T02:42:18.793Z,2.40
2023-09-05T02:44:46.005Z,2.40
2023-09-05T02:47:12.835Z,2.50
2023-09-05T02:49:39.690Z,2.50
2023-09-05T02:52:06.530Z,2.40
2023-09-05T02:54:33.310Z,2.50
2023-09-05T02:57:00.057Z,2.50
2023-09-05T02:59:26.814Z,2.60
2023-09-05T03:01:53.537Z,2.70
2023-09-05T03:04:20.312Z,2.77
2023-09-05T03:06:48.235Z,2.80
2023-09-05T03:09:15.007Z,2.70
2023-09-05T03:11:41.729Z,2.63
2023-09-05T03:14:08.626Z,2.40
2023-09-05T03:16:35.425Z,2.37
2023-09-05T03:19:02.803Z,2.40
2023-09-05T03:21:29.876Z,2.33
2023-09-05T03:23:56.754Z,2.33
2023-09-05T03:26:23.517Z,2.60
2023-09-05T03:28:50.360Z,2.93
2023-09-05T03:31:17.146Z,2.90
2023-09-05T03:33:44.034Z,2.70
2023-09-05T03:36:12.432Z,3.00
2023-09-05T03:38:39.384Z,2.90
2023-09-05T03:41:06.118Z,2.77
2023-09-05T03:43:33.500Z,2.83
2023-09-05T03:46:00.959Z,3.03
2023-09-05T03:48:27.966Z,3.20
2023-09-05T03:50:54.852Z,3.07
2023-09-05T03:53:21.673Z,3.33
2023-09-05T03:55:49.175Z,3.20
2023-09-05T03:58:15.973Z,3.10
2023-09-05T04:00:42.707Z,3.50
2023-09-05T04:03:12.461Z,3.40
2023-09-05T04:05:39.526Z,3.43
2023-09-05T04:08:10.295Z,3.67
2023-09-05T04:10:38.133Z,3.30
2023-09-05T04:13:05.076Z,3.63
2023-09-05T04:15:31.830Z,3.40
2023-09-05T04:17:58.621Z,3.70
2023-09-05T04:20:26.560Z,3.50
2023-09-05T04:22:53.293Z,3.80
2023-09-05T04:25:20.102Z,3.50
2023-09-05T04:27:47.295Z,3.53
2023-09-05T04:30:14.446Z,3.50
2023-09-05T04:32:44.412Z,3.50
2023-09-05T04:35:11.523Z,3.30
2023-09-05T04:37:38.580Z,3.57
2023-09-05T04:40:08.681Z,3.40
2023-09-05T04:42:35.501Z,3.60
2023-09-05T04:45:02.362Z,3.53
2023-09-05T04:47:30.631Z,3.50
2023-09-05T04:50:01.009Z,3.77
2023-09-05T04:52:29.796Z,3.30
2023-09-05T04:54:57.652Z,3.27
2023-09-05T04:57:24.392Z,3.70
2023-09-05T04:59:55.407Z,3.40
2023-09-05T05:02:22.181Z,4.30
2023-09-05T05:04:48.892Z,3.97
2023-09-05T05:07:15.628Z,3.87
2023-09-05T05:09:48.554Z,3.50
2023-09-05T05:12:20.268Z,3.90
2023-09-05T05:14:46.987Z,4.10
2023-09-05T05:17:16.515Z,3.40
2023-09-05T05:19:43.363Z,3.60
2023-09-05T05:22:10.342Z,3.67
2023-09-05T05:24:37.142Z,3.93
2023-09-05T05:27:04.114Z,3.80
2023-09-05T05:29:33.828Z,3.90
2023-09-05T05:32:02.519Z,3.87
2023-09-05T05:34:30.888Z,3.90
2023-09-05T05:36:57.641Z,4.10
2023-09-05T05:39:26.840Z,4.00
2023-09-05T05:41:53.931Z,3.90
2023-09-05T05:44:20.661Z,4.00
2023-09-05T05:46:47.361Z,3.90
2023-09-05T05:49:14.299Z,4.07
2023-09-05T05:51:41.289Z,4.03
2023-09-05T05:54:08.683Z,4.30
2023-09-05T05:56:36.504Z,4.30
2023-09-05T05:59:03.355Z,4.33
2023-09-05T06:01:30.183Z,4.20
2023-09-05T06:03:57.020Z,4.00
2023-09-05T06:06:28.895Z,4.10
2023-09-05T06:08:55.664Z,3.90
2023-09-05T06:11:22.412Z,4.57
2023-09-05T06:13:53.271Z,4.43
2023-09-05T06:16:20.970Z,4.27
2023-09-05T06:18:47.731Z,3.87
2023-09-05T06:21:14.518Z,4.17
2023-09-05T06:23:41.410Z,3.90
2023-09-05T06:26:08.184Z,4.10
2023-09-05T06:28:35.648Z,3.87
2023-09-05T06:31:02.365Z,3.93
2023-09-05T06:33:29.501Z,3.80
2023-09-05T06:35:56.349Z,3.93
2023-09-05T06:38:24.956Z,3.53
2023-09-05T06:40:51.996Z,3.43
2023-09-05T06:43:18.719Z,3.43
2023-09-05T06:45:45.512Z,3.83
2023-09-05T06:48:15.174Z,3.93
2023-09-05T06:50:41.971Z,3.90
2023-09-05T06:53:08.743Z,4.03
2023-09-05T06:55:36.595Z,3.57
2023-09-05T06:58:03.721Z,3.53
2023-09-05T07:00:30.630Z,3.72
2023-09-05T07:02:57.442Z,3.70
2023-09-05T07:05:25.966Z,3.33
2023-09-05T07:07:54.159Z,3.60
2023-09-05T07:10:20.953Z,3.17
2023-09-05T07:12:47.714Z,3.28
2023-09-05T07:15:14.502Z,3.00
2023-09-05T07:17:41.450Z,3.03
2023-09-05T07:20:11.272Z,3.30
2023-09-05T07:22:38.332Z,2.90
2023-09-05T07:25:05.373Z,2.95
2023-09-05T07:27:32.217Z,2.40
2023-09-05T07:29:59.004Z,2.42
2023-09-05T07:32:25.754Z,2.65
2023-09-05T07:34:52.793Z,2.80
2023-09-05T07:37:19.606Z,2.95
2023-09-05T07:39:52.063Z,2.67
2023-09-05T07:42:19.009Z,3.00
2023-09-05T07:44:45.900Z,2.55
2023-09-05T07:47:12.665Z,2.65
2023-09-05T07:49:42.555Z,3.00
2023-09-05T07:52:14.394Z,2.70
2023-09-05T07:54:41.180Z,2.67
2023-09-05T07:57:08.147Z,2.30
2023-09-05T07:59:34.897Z,2.30
2023-09-05T08:02:02.799Z,2.28
2023-09-05T08:04:32.418Z,2.40
2023-09-05T08:06:59.689Z,2.10
2023-09-05T08:09:26.400Z,2.50
2023-09-05T08:11:53.174Z,2.55
2023-09-05T08:14:19.964Z,2.50
2023-09-05T08:16:46.722Z,2.30
2023-09-05T08:19:13.467Z,2.42
2023-09-05T08:21:40.243Z,2.60
2023-09-05T08:24:07.139Z,2.35
2023-09-05T08:26:35.759Z,3.55
2023-09-05T08:29:05.148Z,2.33
2023-09-05T08:31:32.250Z,2.72
2023-09-05T08:33:59.776Z,2.45
2023-09-05T08:36:26.574Z,2.70
2023-09-05T08:38:53.350Z,2.20
2023-09-05T08:41:20.091Z,2.65
2023-09-05T08:43:46.891Z,2.33
2023-09-05T08:46:14.729Z,2.75
2023-09-05T08:48:54.299Z,2.40
2023-09-05T08:51:23.308Z,2.33
2023-09-05T08:54:02.052Z,2.47
2023-09-05T08:56:29.136Z,2.10
2023-09-05T08:59:01.413Z,2.40
2023-09-05T09:01:31.102Z,2.15
2023-09-05T09:03:58.694Z,2.20
2023-09-05T09:06:26.215Z,2.50
2023-09-05T09:08:53.668Z,2.58
2023-09-05T09:11:22.243Z,2.00
2023-09-05T09:13:52.525Z,2.20
2023-09-05T09:16:20.149Z,2.15
2023-09-05T09:18:51.084Z,2.30
2023-09-05T09:21:24.664Z,2.10
2023-09-05T09:23:53.244Z,2.20
2023-09-05T09:26:20.020Z,2.30
2023-09-05T09:28:46.962Z,2.00
2023-09-05T09:31:14.314Z,2.00
2023-09-05T09:33:42.641Z,1.92
2023-09-05T09:36:13.441Z,2.08
2023-09-05T09:38:41.199Z,2.22
2023-09-05T09:41:08.804Z,2.10
2023-09-05T09:43:39.312Z,2.10
2023-09-05T09:46:07.258Z,2.03
2023-09-05T09:48:36.169Z,2.00
2023-09-05T09:51:07.458Z,2.53
2023-09-05T09:53:40.034Z,2.05
2023-09-05T09:56:13.951Z,2.20
2023-09-05T09:58:42.554Z,2.00
2023-09-05T10:01:12.672Z,2.10
2023-09-05T10:03:45.963Z,1.70
2023-09-05T10:06:13.382Z,1.80
2023-09-05T10:08:46.354Z,2.72
2023-09-05T10:11:14.884Z,2.10
2023-09-05T10:13:41.901Z,2.15
2023-09-05T10:16:10.464Z,2.55
2023-09-05T10:18:47.818Z,2.17
2023-09-05T10:21:17.024Z,2.30
2023-09-05T10:23:43.943Z,2.20
2023-09-05T10:26:11.438Z,2.10
2023-09-05T10:28:38.985Z,2.00
2023-09-05T10:31:14.924Z,2.00
2023-09-05T10:33:48.437Z,1.95
2023-09-05T10:36:41.235Z,1.70
2023-09-05T10:39:37.673Z,2.00
2023-09-05T10:42:06.096Z,2.30
2023-09-05T10:44:32.869Z,2.60
2023-09-05T10:47:31.633Z,1.90
2023-09-05T10:50:04.206Z,1.80
2023-09-05T10:52:31.418Z,1.80
2023-09-05T10:54:59.663Z,2.08
2023-09-05T10:57:42.080Z,1.83
2023-09-05T11:00:39.279Z,2.38
2023-09-05T11:03:16.380Z,2.10
2023-09-05T11:05:43.859Z,1.85
2023-09-05T11:08:22.245Z,1.90
2023-09-05T11:10:55.047Z,1.80
2023-09-05T11:13:22.099Z,1.92
2023-09-05T11:15:49.054Z,2.30
2023-09-05T11:18:17.076Z,1.70
2023-09-05T11:20:46.186Z,1.80
2023-09-05T11:23:18.247Z,3.38
2023-09-05T11:26:11.978Z,1.77
2023-09-05T11:28:39.032Z,1.60
2023-09-05T11:31:05.887Z,1.55
2023-09-05T11:33:36.347Z,1.90
2023-09-05T11:36:06.000Z,1.55
2023-09-05T11:38:45.942Z,2.10
2023-09-05T11:41:12.733Z,1.50
2023-09-05T11:43:50.268Z,1.75
2023-09-05T11:46:17.628Z,1.80
2023-09-05T11:48:45.282Z,1.80
2023-09-05T11:51:16.002Z,1.77
2023-09-05T11:53:44.096Z,1.55
2023-09-05T11:56:11.849Z,2.03
2023-09-05T11:58:38.803Z,2.13
2023-09-05T12:01:05.674Z,1.77
2023-09-05T12:03:40.133Z,1.50
2023-09-05T12:06:10.111Z,1.60
2023-09-05T12:08:37.843Z,1.70
2023-09-05T12:11:06.924Z,1.48
2023-09-05T12:14:16.014Z,1.73
2023-09-05T12:16:48.989Z,1.55
2023-09-05T12:19:19.155Z,1.73
2023-09-05T12:21:47.164Z,1.75
2023-09-05T12:24:22.015Z,2.40
2023-09-05T12:26:51.145Z,1.90
2023-09-05T12:29:28.618Z,1.60
2023-09-05T12:31:55.476Z,1.80
2023-09-05T12:34:22.252Z,1.55
2023-09-05T12:36:49.000Z,1.80
2023-09-05T12:39:15.772Z,1.40
2023-09-05T12:41:42.660Z,1.70
2023-09-05T12:44:10.463Z,1.63
2023-09-05T12:46:37.366Z,1.60
2023-09-05T12:49:04.206Z,1.70
2023-09-05T12:51:32.244Z,1.77
2023-09-05T12:54:00.616Z,1.65
2023-09-05T12:56:27.453Z,1.80
2023-09-05T12:58:54.226Z,1.63
2023-09-05T13:01:23.739Z,1.67
2023-09-05T13:03:51.122Z,1.75
2023-09-05T13:06:21.077Z,1.40
2023-09-05T13:08:48.200Z,1.60
2023-09-05T13:11:17.110Z,1.58
2023-09-05T13:13:45.055Z,1.70
2023-09-05T13:16:11.999Z,1.70
2023-09-05T13:18:38.744Z,1.40
2023-09-05T13:21:05.576Z,1.50
2023-09-05T13:23:32.374Z,1.58
2023-09-05T13:26:03.593Z,1.45
2023-09-05T13:28:31.231Z,1.70
2023-09-05T13:30:58.233Z,1.65
2023-09-05T13:33:25.641Z,1.67
2023-09-05T13:35:52.519Z,1.50
2023-09-05T13:38:20.953Z,1.52
2023-09-05T13:40:47.844Z,1.65
2023-09-05T13:43:14.590Z,1.42
2023-09-05T13:45:41.379Z,1.90
2023-09-05T13:48:08.713Z,1.70
2023-09-05T13:50:35.556Z,1.40
2023-09-05T13:53:02.331Z,1.60
2023-09-05T13:55:29.240Z,1.50
2023-09-05T13:57:56.017Z,1.48
2023-09-05T14:00:23.425Z,1.58
2023-09-05T14:02:52.788Z,1.40
2023-09-05T14:05:19.874Z,1.40
2023-09-05T14:07:46.913Z,1.55
2023-09-05T14:10:14.602Z,1.80
2023-09-05T14:12:49.038Z,1.48
2023-09-05T14:15:16.072Z,1.60
2023-09-05T14:17:47.075Z,1.58
2023-09-05T14:20:14.084Z,1.70
2023-09-05T14:22:40.961Z,1.50
2023-09-05T14:25:08.330Z,1.40
2023-09-05T14:27:35.178Z,1.65
2023-09-05T14:30:01.975Z,1.80
2023-09-05T14:32:28.732Z,1.60
2023-09-05T14:34:55.702Z,1.38
2023-09-05T14:37:24.359Z,1.65
2023-09-05T14:39:54.407Z,1.50
2023-09-05T14:42:21.880Z,1.52
2023-09-05T14:44:48.787Z,1.70
2023-09-05T14:47:16.810Z,1.80
2023-09-05T14:49:43.787Z,1.77
2023-09-05T14:52:10.477Z,1.75
2023-09-05T14:54:37.265Z,1.80
2023-09-05T14:57:04.231Z,1.50
2023-09-05T14:59:33.809Z,1.80
2023-09-05T15:02:00.589Z,2.22
2023-09-05T15:04:27.387Z,1.85
2023-09-05T15:06:54.281Z,1.88
2023-09-05T15:09:22.293Z,1.60
2023-09-05T15:11:49.398Z,1.73
2023-09-05T15:14:16.152Z,1.90
2023-09-05T15:16:43.317Z,1.70
2023-09-05T15:19:10.284Z,2.03
2023-09-05T15:21:40.217Z,2.03
2023-09-05T15:24:07.713Z,2.10
2023-09-05T15:26:34.709Z,1.90
2023-09-05T15:29:01.462Z,1.80
2023-09-05T15:31:28.369Z,1.90
2023-09-05T15:33:55.354Z,2.03
2023-09-05T15:36:22.295Z,2.35
2023-09-05T15:38:49.016Z,2.00
2023-09-05T15:41:15.727Z,2.00
2023-09-05T15:43:42.529Z,1.90
2023-09-05T15:46:09.343Z,1.80
2023-09-05T15:48:36.221Z,1.55
2023-09-05T15:51:03.672Z,1.70
2023-09-05T15:53:32.328Z,1.90
2023-09-05T15:55:59.465Z,2.10
2023-09-05T15:58:26.711Z,2.30
2023-09-05T16:00:56.734Z,2.30
2023-09-05T16:03:27.371Z,2.20
2023-09-05T16:05:57.446Z,2.00
2023-09-05T16:08:25.070Z,2.10
2023-09-05T16:10:53.472Z,2.35
2023-09-05T16:13:20.286Z,2.45
2023-09-05T16:15:47.278Z,2.30
2023-09-05T16:18:20.311Z,2.67
2023-09-05T16:21:15.945Z,2.22
2023-09-05T16:24:08.424Z,2.50
2023-09-05T16:27:16.205Z,2.33
2023-09-05T16:29:41.199Z,2.40
2023-09-05T16:32:08.125Z,2.50
2023-09-05T16:34:35.052Z,2.47
2023-09-05T16:37:05.093Z,2.15
2023-09-05T16:39:36.330Z,2.35
2023-09-05T16:42:07.653Z,2.00
2023-09-05T16:44:34.683Z,2.10
2023-09-05T16:47:08.661Z,1.98
2023-09-05T16:49:47.348Z,2.22
2023-09-05T16:52:15.491Z,2.70
2023-09-05T16:54:44.275Z,2.20
2023-09-05T16:57:12.832Z,2.40
2023-09-05T16:59:41.454Z,2.40
2023-09-05T17:02:08.288Z,2.53
2023-09-05T17:04:35.044Z,2.40
2023-09-05T17:07:01.870Z,2.40
2023-09-05T17:09:29.147Z,2.50
2023-09-05T17:11:56.065Z,2.20
2023-09-05T17:14:24.258Z,2.65
2023-09-05T17:16:51.162Z,2.42
2023-09-05T17:19:17.954Z,2.55
2023-09-05T17:21:44.975Z,2.90
2023-09-05T17:24:11.798Z,2.80
2023-09-05T17:26:38.694Z,3.08
2023-09-05T17:29:05.590Z,3.40
2023-09-05T17:31:32.582Z,2.88
2023-09-05T17:34:00.230Z,2.90
2023-09-05T17:36:27.231Z,2.90
2023-09-05T17:38:53.981Z,2.83
2023-09-05T17:41:20.719Z,2.45
2023-09-05T17:43:47.599Z,2.60
2023-09-05T17:46:14.329Z,2.58
2023-09-05T17:48:41.294Z,2.67
2023-09-05T17:51:11.104Z,3.22
2023-09-05T17:53:38.128Z,4.10
2023-09-05T17:56:06.358Z,5.25
2023-09-05T17:58:33.309Z,4.18
2023-09-05T18:01:00.180Z,3.55
2023-09-05T18:03:27.038Z,3.47
2023-09-05T18:05:54.135Z,3.47
2023-09-05T18:08:21.206Z,5.68
2023-09-05T18:10:47.998Z,4.65
2023-09-05T18:13:15.007Z,3.45
2023-09-05T18:15:43.066Z,2.90
2023-09-05T18:18:10.438Z,3.00
2023-09-05T18:20:42.784Z,2.55
2023-09-05T18:23:09.704Z,2.50
2023-09-05T18:25:36.426Z,2.55
2023-09-05T18:28:03.295Z,2.60
2023-09-05T18:30:30.198Z,2.67
2023-09-05T18:32:57.693Z,2.50
2023-09-05T18:35:24.834Z,2.78
2023-09-05T18:37:51.564Z,2.70
2023-09-05T18:40:18.417Z,2.60
2023-09-05T18:42:45.201Z,2.95
2023-09-05T18:45:11.999Z,2.60
2023-09-05T18:47:38.810Z,2.90
2023-09-05T18:50:06.498Z,2.50
2023-09-05T18:52:33.232Z,2.80
2023-09-05T18:55:00.012Z,2.65
2023-09-05T18:57:26.929Z,2.40
2023-09-05T18:59:53.812Z,2.80
2023-09-05T19:02:26.559Z,2.65
2023-09-05T19:04:53.644Z,2.70
2023-09-05T19:07:20.639Z,2.80
2023-09-05T19:09:47.467Z,2.95
2023-09-05T19:12:15.032Z,3.03
2023-09-05T19:14:41.794Z,3.55
2023-09-05T19:17:08.540Z,3.10
2023-09-05T19:19:37.337Z,3.13
2023-09-05T19:22:05.269Z,3.00
2023-09-05T19:24:33.768Z,3.10
2023-09-05T19:27:00.634Z,2.70
2023-09-05T19:29:30.016Z,2.70
2023-09-05T19:31:57.059Z,3.08
2023-09-05T19:34:31.648Z,3.08
2023-09-05T19:36:58.444Z,2.72
2023-09-05T19:39:29.717Z,3.08
2023-09-05T19:41:58.335Z,2.80
2023-09-05T19:44:25.347Z,2.53
2023-09-05T19:46:52.093Z,2.83
2023-09-05T19:49:18.864Z,2.60
2023-09-05T19:51:45.764Z,2.60
2023-09-05T19:54:12.877Z,2.50
2023-09-05T19:56:39.634Z,2.40
2023-09-05T19:59:07.098Z,2.28
2023-09-05T20:01:34.978Z,2.63
2023-09-05T20:04:02.257Z,2.40
2023-09-05T20:06:29.115Z,2.30
2023-09-05T20:08:56.062Z,2.78
2023-09-05T20:11:22.773Z,2.60
2023-09-05T20:13:49.511Z,2.50
2023-09-05T20:16:16.292Z,2.72
2023-09-05T20:18:43.177Z,2.53
2023-09-05T20:21:11.070Z,2.70
2023-09-05T20:23:37.765Z,2.50
2023-09-05T20:26:04.499Z,2.55
2023-09-05T20:28:32.570Z,2.58
2023-09-05T20:31:00.669Z,2.30
2023-09-05T20:33:30.530Z,2.35
2023-09-05T20:36:05.247Z,2.35
2023-09-05T20:38:32.023Z,2.20
2023-09-05T20:40:58.779Z,2.42
2023-09-05T20:43:25.702Z,2.30
2023-09-05T20:45:52.487Z,2.30
2023-09-05T20:48:19.517Z,2.33
2023-09-05T20:50:46.598Z,2.33
2023-09-05T20:53:13.325Z,2.40
2023-09-05T20:55:40.081Z,2.35
2023-09-05T20:58:06.973Z,2.45
2023-09-05T21:00:33.862Z,2.08
2023-09-05T21:03:00.829Z,2.10
2023-09-05T21:05:31.366Z,2.20
2023-09-05T21:07:58.397Z,2.35
2023-09-05T21:10:28.803Z,2.33
2023-09-05T21:12:56.239Z,2.13
2023-09-05T21:15:23.502Z,2.40
2023-09-05T21:17:50.552Z,2.20
2023-09-05T21:20:17.840Z,2.50
2023-09-05T21:22:45.303Z,2.20
2023-09-05T21:25:13.296Z,2.20
2023-09-05T21:27:40.332Z,2.13
2023-09-05T21:30:08.600Z,2.30
2023-09-05T21:32:36.261Z,2.28
2023-09-05T21:35:03.710Z,2.30
2023-09-05T21:37:30.673Z,2.58
2023-09-05T21:39:57.575Z,2.33
2023-09-05T21:42:27.835Z,2.40
2023-09-05T21:44:55.223Z,2.38
2023-09-05T21:47:22.153Z,2.50
2023-09-05T21:49:48.995Z,2.35
2023-09-05T21:52:15.723Z,2.03
2023-09-05T21:54:44.978Z,2.22
2023-09-05T21:57:11.772Z,2.42
2023-09-05T21:59:38.546Z,2.65
2023-09-05T22:02:05.622Z,2.35
2023-09-05T22:04:32.624Z,2.38
2023-09-05T22:06:59.504Z,2.53
2023-09-05T22:09:27.048Z,2.40
2023-09-05T22:11:53.818Z,2.33
2023-09-05T22:14:23.188Z,2.08
2023-09-05T22:16:51.533Z,2.15
2023-09-05T22:19:29.893Z,2.50
2023-09-05T22:21:59.791Z,2.67
2023-09-05T22:24:26.947Z,2.50
2023-09-05T22:26:56.391Z,2.60
2023-09-05T22:29:23.528Z,2.80
2023-09-05T22:31:50.468Z,2.42
2023-09-05T22:34:17.697Z,2.33
2023-09-05T22:36:44.626Z,2.47
2023-09-05T22:39:12.003Z,2.60
2023-09-05T22:41:39.410Z,2.22
2023-09-05T22:44:06.994Z,2.30
2023-09-05T22:46:34.049Z,2.90
2023-09-05T22:49:00.827Z,2.65
2023-09-05T22:51:27.660Z,3.00
2023-09-05T22:53:54.420Z,2.83
2023-09-05T22:56:21.182Z,2.70
2023-09-05T22:58:52.853Z,2.30
2023-09-05T23:01:19.663Z,2.67
2023-09-05T23:03:46.715Z,2.67
2023-09-05T23:06:14.709Z,2.90
2023-09-05T23:08:41.486Z,2.72
2023-09-05T23:11:08.314Z,2.50
2023-09-05T23:13:38.031Z,2.70
2023-09-05T23:16:05.262Z,2.80
2023-09-05T23:18:36.386Z,2.65
2023-09-05T23:21:06.314Z,2.70
2023-09-05T23:23:36.225Z,2.75
2023-09-05T23:26:04.416Z,2.78
2023-09-05T23:28:32.159Z,2.72
2023-09-05T23:31:02.013Z,2.70
2023-09-05T23:33:31.032Z,3.08
2023-09-05T23:35:58.258Z,2.53
2023-09-05T23:38:25.374Z,2.67
2023-09-05T23:40:52.323Z,2.67
2023-09-05T23:43:19.177Z,2.80
2023-09-05T23:45:54.459Z,2.70
2023-09-05T23:48:24.705Z,2.50
2023-09-05T23:50:51.918Z,2.60
2023-09-05T23:53:18.845Z,2.40
2023-09-05T23:55:46.277Z,2.30
2023-09-05T23:58:13.478Z,2.50
